createdAt,value
2023-04-25T00:02:23.411Z,4.50
2023-04-25T00:05:08.819Z,3.63
2023-04-25T00:07:54.298Z,4.00
2023-04-25T00:10:39.145Z,4.10
2023-04-25T00:13:24.384Z,4.60
2023-04-25T00:16:09.477Z,5.25
2023-04-25T00:18:54.905Z,4.65
2023-04-25T00:21:41.548Z,3.33
2023-04-25T00:24:27.075Z,4.43
2023-04-25T00:27:12.200Z,3.97
2023-04-25T00:29:57.149Z,4.07
2023-04-25T00:32:42.568Z,3.50
2023-04-25T00:35:27.694Z,3.80
2023-04-25T00:38:12.979Z,4.07
2023-04-25T00:40:58.735Z,3.92
2023-04-25T00:43:46.686Z,4.15
2023-04-25T00:46:32.387Z,3.45
2023-04-25T00:49:17.959Z,3.85
2023-04-25T00:52:03.324Z,3.42
2023-04-25T00:54:48.739Z,3.80
2023-04-25T00:57:34.147Z,3.80
2023-04-25T01:00:20.525Z,4.15
2023-04-25T01:03:06.083Z,4.47
2023-04-25T01:05:51.843Z,3.97
2023-04-25T01:08:39.271Z,3.33
2023-04-25T01:11:24.537Z,3.88
2023-04-25T01:14:09.825Z,4.23
2023-04-25T01:16:55.583Z,3.85
2023-04-25T01:19:41.219Z,4.00
2023-04-25T01:22:26.785Z,4.10
2023-04-25T01:25:11.936Z,3.70
2023-04-25T01:27:57.951Z,4.18
2023-04-25T01:30:43.661Z,4.95
2023-04-25T01:33:28.827Z,4.07
2023-04-25T01:36:15.582Z,3.40
2023-04-25T01:39:01.702Z,4.15
2023-04-25T01:41:48.215Z,4.13
2023-04-25T01:44:33.512Z,3.60
2023-04-25T01:47:18.532Z,5.15
2023-04-25T01:50:05.115Z,3.47
2023-04-25T01:52:50.659Z,4.30
2023-04-25T01:55:35.725Z,4.68
2023-04-25T01:58:21.272Z,3.97
2023-04-25T02:01:06.133Z,3.97
2023-04-25T02:03:51.794Z,3.60
2023-04-25T02:06:37.247Z,3.55
2023-04-25T02:09:22.491Z,3.10
2023-04-25T02:12:10.735Z,3.55
2023-04-25T02:14:58.685Z,3.58
2023-04-25T02:17:43.903Z,2.78
2023-04-25T02:20:30.971Z,3.60
2023-04-25T02:23:20.164Z,3.17
2023-04-25T02:26:05.835Z,3.65
2023-04-25T02:28:52.383Z,3.22
2023-04-25T02:31:37.460Z,4.00
2023-04-25T02:34:22.850Z,3.28
2023-04-25T02:37:07.827Z,2.67
2023-04-25T02:39:52.785Z,3.28
2023-04-25T02:42:38.017Z,2.83
2023-04-25T02:45:23.375Z,2.95
2023-04-25T02:48:09.151Z,2.78
2023-04-25T02:50:54.863Z,3.10
2023-04-25T02:53:40.140Z,2.97
2023-04-25T02:56:27.258Z,3.00
2023-04-25T02:59:12.915Z,3.20
2023-04-25T03:01:58.293Z,2.70
2023-04-25T03:04:43.955Z,3.17
2023-04-25T03:07:29.149Z,3.58
2023-04-25T03:10:14.271Z,3.10
2023-04-25T03:12:59.478Z,3.10
2023-04-25T03:15:50.731Z,2.90
2023-04-25T03:18:36.500Z,2.90
2023-04-25T03:21:21.727Z,2.88
2023-04-25T03:24:07.169Z,2.72
2023-04-25T03:26:52.330Z,3.15
2023-04-25T03:29:37.293Z,2.72
2023-04-25T03:32:22.442Z,3.10
2023-04-25T03:35:08.161Z,2.40
2023-04-25T03:37:53.506Z,2.92
2023-04-25T03:40:38.806Z,2.72
2023-04-25T03:43:23.821Z,3.58
2023-04-25T03:46:09.238Z,3.25
2023-04-25T03:48:54.556Z,2.85
2023-04-25T03:51:39.977Z,3.28
2023-04-25T03:54:25.092Z,3.40
2023-04-25T03:57:10.443Z,3.50
2023-04-25T03:59:56.052Z,3.40
2023-04-25T04:02:43.127Z,2.45
2023-04-25T04:05:30.202Z,2.75
2023-04-25T04:08:15.236Z,2.97
2023-04-25T04:11:00.340Z,3.30
2023-04-25T04:13:45.729Z,3.30
2023-04-25T04:16:32.521Z,2.90
2023-04-25T04:19:19.201Z,3.13
2023-04-25T04:22:04.399Z,2.83
2023-04-25T04:24:50.940Z,2.92
2023-04-25T04:27:36.538Z,2.80
2023-04-25T04:30:26.387Z,2.95
2023-04-25T04:33:12.310Z,3.60
2023-04-25T04:35:57.811Z,2.95
2023-04-25T04:38:43.359Z,2.65
2023-04-25T04:41:28.227Z,2.47
2023-04-25T04:44:13.473Z,3.13
2023-04-25T04:46:58.874Z,2.85
2023-04-25T04:49:44.147Z,3.25
2023-04-25T04:52:29.006Z,3.15
2023-04-25T04:55:14.037Z,3.35
2023-04-25T04:57:59.068Z,3.22
2023-04-25T05:00:44.369Z,3.28
2023-04-25T05:03:30.021Z,3.50
2023-04-25T05:06:15.190Z,2.55
2023-04-25T05:09:00.893Z,2.75
2023-04-25T05:11:46.015Z,3.47
2023-04-25T05:14:31.371Z,3.15
2023-04-25T05:17:16.678Z,3.65
2023-04-25T05:20:01.587Z,3.28
2023-04-25T05:22:46.901Z,3.38
2023-04-25T05:25:31.687Z,3.75
2023-04-25T05:28:16.778Z,3.22
2023-04-25T05:31:01.740Z,3.13
2023-04-25T05:33:46.750Z,2.42
2023-04-25T05:36:33.456Z,3.50
2023-04-25T05:39:18.536Z,3.92
2023-04-25T05:42:04.770Z,2.80
2023-04-25T05:44:50.018Z,3.63
2023-04-25T05:47:35.396Z,2.83
2023-04-25T05:50:20.551Z,3.30
2023-04-25T05:53:06.862Z,3.08
2023-04-25T05:55:52.064Z,3.17
2023-04-25T05:58:37.007Z,3.72
2023-04-25T06:01:23.432Z,3.10
2023-04-25T06:04:08.769Z,3.10
2023-04-25T06:06:53.893Z,3.28
2023-04-25T06:09:40.039Z,3.10
2023-04-25T06:12:25.412Z,3.55
2023-04-25T06:15:24.449Z,3.03
2023-04-25T06:18:13.090Z,3.45
2023-04-25T06:20:58.063Z,2.97
2023-04-25T06:23:43.034Z,2.75
2023-04-25T06:26:28.004Z,3.20
2023-04-25T06:29:13.339Z,2.92
2023-04-25T06:31:58.446Z,3.65
2023-04-25T06:34:43.699Z,2.65
2023-04-25T06:37:28.967Z,2.97
2023-04-25T06:40:14.064Z,3.53
2023-04-25T06:42:59.273Z,2.85
2023-04-25T06:45:46.349Z,3.10
2023-04-25T06:48:32.882Z,3.05
2023-04-25T06:51:17.855Z,3.45
2023-04-25T06:54:05.041Z,3.25
2023-04-25T06:56:50.820Z,3.28
2023-04-25T06:59:35.875Z,3.83
2023-04-25T07:02:22.655Z,2.60
2023-04-25T07:05:08.408Z,2.88
2023-04-25T07:07:53.764Z,2.97
2023-04-25T07:10:39.160Z,2.95
2023-04-25T07:13:24.649Z,3.33
2023-04-25T07:16:09.993Z,2.47
2023-04-25T07:18:55.393Z,2.60
2023-04-25T07:21:40.599Z,2.40
2023-04-25T07:24:25.624Z,2.63
2023-04-25T07:27:10.854Z,2.80
2023-04-25T07:29:56.394Z,2.63
2023-04-25T07:32:41.763Z,2.33
2023-04-25T07:35:27.016Z,3.22
2023-04-25T07:38:12.327Z,2.70
2023-04-25T07:40:57.574Z,2.63
2023-04-25T07:43:42.942Z,2.38
2023-04-25T07:46:28.076Z,2.60
2023-04-25T07:49:13.497Z,2.25
2023-04-25T07:51:58.523Z,2.60
2023-04-25T07:54:43.487Z,2.95
2023-04-25T07:57:30.142Z,2.75
2023-04-25T08:00:16.116Z,2.60
2023-04-25T08:03:01.388Z,2.30
2023-04-25T08:05:47.145Z,1.63
2023-04-25T08:08:32.080Z,2.80
2023-04-25T08:11:17.236Z,1.98
2023-04-25T08:14:02.746Z,2.35
2023-04-25T08:16:47.711Z,2.33
2023-04-25T08:19:32.898Z,2.63
2023-04-25T08:22:17.823Z,2.40
2023-04-25T08:25:04.728Z,3.22
2023-04-25T08:27:49.645Z,2.80
2023-04-25T08:30:35.106Z,1.98
2023-04-25T08:33:20.814Z,2.13
2023-04-25T08:36:05.773Z,2.30
2023-04-25T08:38:52.035Z,2.58
2023-04-25T08:41:39.539Z,2.65
2023-04-25T08:44:25.623Z,2.00
2023-04-25T08:47:10.845Z,2.22
2023-04-25T08:49:56.932Z,1.95
2023-04-25T08:52:46.785Z,2.10
2023-04-25T08:55:32.693Z,2.35
2023-04-25T08:58:19.645Z,2.35
2023-04-25T09:01:04.889Z,2.50
2023-04-25T09:03:50.425Z,1.90
2023-04-25T09:06:35.852Z,1.80
2023-04-25T09:09:21.638Z,2.58
2023-04-25T09:12:06.715Z,2.05
2023-04-25T09:15:05.483Z,2.20
2023-04-25T09:17:57.261Z,2.25
2023-04-25T09:20:56.514Z,2.35
2023-04-25T09:23:48.334Z,2.38
2023-04-25T09:26:33.733Z,2.25
2023-04-25T09:29:19.046Z,2.17
2023-04-25T09:32:16.554Z,1.70
2023-04-25T09:35:01.925Z,2.10
2023-04-25T09:37:46.911Z,1.83
2023-04-25T09:40:32.224Z,1.63
2023-04-25T09:43:22.005Z,1.70
2023-04-25T09:46:12.290Z,1.60
2023-04-25T09:48:57.639Z,2.17
2023-04-25T09:51:42.637Z,1.88
2023-04-25T09:54:27.738Z,2.00
2023-04-25T09:57:25.073Z,1.40
2023-04-25T10:00:13.669Z,1.67
2023-04-25T10:03:02.313Z,1.35
2023-04-25T10:05:50.268Z,1.67
2023-04-25T10:08:39.322Z,1.80
2023-04-25T10:11:27.121Z,1.98
2023-04-25T10:14:13.995Z,2.40
2023-04-25T10:16:59.951Z,2.40
2023-04-25T10:19:44.877Z,1.90
2023-04-25T10:22:43.588Z,2.03
2023-04-25T10:25:28.892Z,1.50
2023-04-25T10:28:14.072Z,2.05
2023-04-25T10:31:05.222Z,1.80
2023-04-25T10:33:50.735Z,1.92
2023-04-25T10:36:38.319Z,1.83
2023-04-25T10:39:27.950Z,2.03
2023-04-25T10:42:13.166Z,1.85
2023-04-25T10:45:08.495Z,2.20
2023-04-25T10:47:53.589Z,1.80
2023-04-25T10:50:40.807Z,1.92
2023-04-25T10:53:26.215Z,1.83
2023-04-25T10:56:24.516Z,1.90
2023-04-25T10:59:11.978Z,1.88
2023-04-25T11:01:57.205Z,1.75
2023-04-25T11:04:42.706Z,1.73
2023-04-25T11:08:07.930Z,1.40
2023-04-25T11:10:53.593Z,1.73
2023-04-25T11:13:38.733Z,1.27
2023-04-25T11:16:28.378Z,1.40
2023-04-25T11:19:14.022Z,1.20
2023-04-25T11:22:00.915Z,1.75
2023-04-25T11:24:46.636Z,1.80
2023-04-25T11:27:31.899Z,1.30
2023-04-25T11:30:18.186Z,1.55
2023-04-25T11:33:04.388Z,1.35
2023-04-25T11:35:49.535Z,1.10
2023-04-25T11:38:35.394Z,1.52
2023-04-25T11:41:21.260Z,1.45
2023-04-25T11:44:06.768Z,1.20
2023-04-25T11:46:51.799Z,1.38
2023-04-25T11:49:37.032Z,1.30
2023-04-25T11:52:21.939Z,1.30
2023-04-25T11:55:09.911Z,1.20
2023-04-25T11:57:56.262Z,1.17
2023-04-25T12:00:50.157Z,1.50
2023-04-25T12:03:47.295Z,1.48
2023-04-25T12:06:32.835Z,1.60
2023-04-25T12:09:31.882Z,1.30
2023-04-25T12:12:17.405Z,1.38
2023-04-25T12:15:19.883Z,1.52
2023-04-25T12:18:05.285Z,1.48
2023-04-25T12:20:50.725Z,1.30
2023-04-25T12:23:39.820Z,1.17
2023-04-25T12:26:26.432Z,1.50
2023-04-25T12:29:22.321Z,1.00
2023-04-25T12:32:07.575Z,1.33
2023-04-25T12:34:52.962Z,2.03
2023-04-25T12:37:37.998Z,1.77
2023-04-25T12:40:22.986Z,1.55
2023-04-25T12:43:08.129Z,1.50
2023-04-25T12:45:55.117Z,1.25
2023-04-25T12:48:40.294Z,1.15
2023-04-25T12:51:26.041Z,1.13
2023-04-25T12:54:11.580Z,1.45
2023-04-25T12:56:57.276Z,1.38
2023-04-25T12:59:42.533Z,1.60
2023-04-25T13:02:27.595Z,1.60
2023-04-25T13:05:13.621Z,1.60
2023-04-25T13:07:58.864Z,1.67
2023-04-25T13:10:43.808Z,1.65
2023-04-25T13:13:29.521Z,1.50
2023-04-25T13:16:15.143Z,1.92
2023-04-25T13:19:00.845Z,2.80
2023-04-25T13:21:45.979Z,2.95
2023-04-25T13:24:30.934Z,2.10
2023-04-25T13:27:16.096Z,1.52
2023-04-25T13:30:05.605Z,2.22
2023-04-25T13:32:51.011Z,1.55
2023-04-25T13:35:37.982Z,1.40
2023-04-25T13:38:24.628Z,1.38
2023-04-25T13:41:11.430Z,1.52
2023-04-25T13:43:56.946Z,1.58
2023-04-25T13:46:47.105Z,1.63
2023-04-25T13:49:33.052Z,1.65
2023-04-25T13:52:17.852Z,1.25
2023-04-25T13:55:04.795Z,1.40
2023-04-25T13:57:50.358Z,1.55
2023-04-25T14:00:40.444Z,1.55
2023-04-25T14:03:26.892Z,1.40
2023-04-25T14:06:13.488Z,1.40
2023-04-25T14:08:58.798Z,1.45
2023-04-25T14:11:44.021Z,1.63
2023-04-25T14:14:29.200Z,1.50
2023-04-25T14:17:14.412Z,1.92
2023-04-25T14:19:59.493Z,1.58
2023-04-25T14:22:44.721Z,1.80
2023-04-25T14:25:31.257Z,1.90
2023-04-25T14:28:16.619Z,1.83
2023-04-25T14:31:01.834Z,2.28
2023-04-25T14:33:47.030Z,1.23
2023-04-25T14:36:33.172Z,1.48
2023-04-25T14:39:19.269Z,1.63
2023-04-25T14:42:04.795Z,1.98
2023-04-25T14:44:49.874Z,2.15
2023-04-25T14:47:38.476Z,1.45
2023-04-25T14:50:23.716Z,1.35
2023-04-25T14:53:08.963Z,1.75
2023-04-25T14:55:54.682Z,1.90
2023-04-25T14:58:41.364Z,1.70
2023-04-25T15:01:27.016Z,2.10
2023-04-25T15:04:13.539Z,1.55
2023-04-25T15:06:58.859Z,1.65
2023-04-25T15:09:45.052Z,1.85
2023-04-25T15:12:30.191Z,2.15
2023-04-25T15:15:22.791Z,1.50
2023-04-25T15:18:12.112Z,1.63
2023-04-25T15:20:57.460Z,1.52
2023-04-25T15:23:42.626Z,1.88
2023-04-25T15:26:28.428Z,1.85
2023-04-25T15:29:13.346Z,1.60
2023-04-25T15:31:58.514Z,1.95
2023-04-25T15:34:43.911Z,2.00
2023-04-25T15:37:28.890Z,1.70
2023-04-25T15:40:17.576Z,1.55
2023-04-25T15:43:03.319Z,1.63
2023-04-25T15:45:48.224Z,1.92
2023-04-25T15:48:33.509Z,1.70
2023-04-25T15:51:18.384Z,2.05
2023-04-25T15:54:04.090Z,3.30
2023-04-25T15:56:49.323Z,2.70
2023-04-25T15:59:34.205Z,2.13
2023-04-25T16:02:19.547Z,2.22
2023-04-25T16:05:05.196Z,1.65
2023-04-25T16:07:53.449Z,1.60
2023-04-25T16:10:38.594Z,2.25
2023-04-25T16:13:23.784Z,1.80
2023-04-25T16:16:09.114Z,1.92
2023-04-25T16:18:54.265Z,2.38
2023-04-25T16:21:39.223Z,1.95
2023-04-25T16:24:24.114Z,1.88
2023-04-25T16:27:09.356Z,1.52
2023-04-25T16:29:54.530Z,1.90
2023-04-25T16:32:41.385Z,1.85
2023-04-25T16:35:30.497Z,2.40
2023-04-25T16:38:16.607Z,2.08
2023-04-25T16:41:01.861Z,2.22
2023-04-25T16:43:47.118Z,1.42
2023-04-25T16:46:32.304Z,1.70
2023-04-25T16:49:17.637Z,1.85
2023-04-25T16:52:03.510Z,1.60
2023-04-25T16:54:48.738Z,1.90
2023-04-25T16:57:37.616Z,1.77
2023-04-25T17:00:23.109Z,1.70
2023-04-25T17:03:08.669Z,1.92
2023-04-25T17:05:57.917Z,1.70
2023-04-25T17:08:43.048Z,1.92
2023-04-25T17:11:28.080Z,1.70
2023-04-25T17:14:13.449Z,1.20
2023-04-25T17:16:58.752Z,1.75
2023-04-25T17:19:44.389Z,1.80
2023-04-25T17:22:29.403Z,2.22
2023-04-25T17:25:14.364Z,2.00
2023-04-25T17:27:59.201Z,1.67
2023-04-25T17:30:44.463Z,1.60
2023-04-25T17:33:29.473Z,1.70
2023-04-25T17:36:15.028Z,1.98
2023-04-25T17:39:00.023Z,1.70
2023-04-25T17:41:45.174Z,1.75
2023-04-25T17:44:30.530Z,1.80
2023-04-25T17:47:17.348Z,1.77
2023-04-25T17:50:02.505Z,1.92
2023-04-25T17:52:48.426Z,1.80
2023-04-25T17:55:33.962Z,1.60
2023-04-25T17:58:19.047Z,2.10
2023-04-25T18:01:05.486Z,1.95
2023-04-25T18:03:51.654Z,1.98
2023-04-25T18:06:36.883Z,1.73
2023-04-25T18:09:23.427Z,2.05
2023-04-25T18:12:09.110Z,1.80
2023-04-25T18:14:54.261Z,1.40
2023-04-25T18:17:42.450Z,1.63
2023-04-25T18:20:28.640Z,1.85
2023-04-25T18:23:13.713Z,1.42
2023-04-25T18:25:58.825Z,3.97
2023-04-25T18:28:44.069Z,2.00
2023-04-25T18:31:31.895Z,2.03
2023-04-25T18:34:19.111Z,1.95
2023-04-25T18:37:04.353Z,1.42
2023-04-25T18:39:49.691Z,1.73
2023-04-25T18:42:34.617Z,2.00
2023-04-25T18:45:19.843Z,1.58
2023-04-25T18:48:05.189Z,2.65
2023-04-25T18:50:51.344Z,2.03
2023-04-25T18:53:37.412Z,2.00
2023-04-25T18:56:25.473Z,2.00
2023-04-25T18:59:11.140Z,2.53
2023-04-25T19:01:56.466Z,1.90
2023-04-25T19:04:42.721Z,2.10
2023-04-25T19:07:28.294Z,2.00
2023-04-25T19:10:13.119Z,1.50
2023-04-25T19:12:58.233Z,2.10
2023-04-25T19:15:43.572Z,1.80
2023-04-25T19:18:28.556Z,1.75
2023-04-25T19:21:14.656Z,2.25
2023-04-25T19:24:01.313Z,2.15
2023-04-25T19:26:46.551Z,2.28
2023-04-25T19:29:33.155Z,2.90
2023-04-25T19:32:18.139Z,7.85
2023-04-25T19:35:07.446Z,3.45
2023-04-25T19:37:54.003Z,4.88
2023-04-25T19:40:39.035Z,5.13
2023-04-25T19:43:24.116Z,3.95
2023-04-25T19:46:09.592Z,3.90
2023-04-25T19:48:55.380Z,2.70
2023-04-25T19:51:40.649Z,3.10
2023-04-25T19:54:25.885Z,3.05
2023-04-25T19:57:12.107Z,2.58
2023-04-25T19:59:57.261Z,2.83
2023-04-25T20:02:45.312Z,2.80
2023-04-25T20:05:32.216Z,2.55
2023-04-25T20:08:17.430Z,2.67
2023-04-25T20:11:02.874Z,2.40
2023-04-25T20:13:48.283Z,2.35
2023-04-25T20:16:33.458Z,2.85
2023-04-25T20:19:19.145Z,2.42
2023-04-25T20:22:04.636Z,2.58
2023-04-25T20:24:50.126Z,2.58
2023-04-25T20:27:37.769Z,2.90
2023-04-25T20:30:22.900Z,2.70
2023-04-25T20:33:09.312Z,2.47
2023-04-25T20:35:54.784Z,2.72
2023-04-25T20:38:40.095Z,2.67
2023-04-25T20:41:25.724Z,2.63
2023-04-25T20:44:12.330Z,2.40
2023-04-25T20:46:57.824Z,2.20
2023-04-25T20:49:42.953Z,2.40
2023-04-25T20:52:28.119Z,2.25
2023-04-25T20:55:13.447Z,2.33
2023-04-25T20:57:58.906Z,1.92
2023-04-25T21:00:47.371Z,2.13
2023-04-25T21:03:33.673Z,2.20
2023-04-25T21:06:19.497Z,2.38
2023-04-25T21:09:04.942Z,2.92
2023-04-25T21:11:51.080Z,3.60
2023-04-25T21:14:36.380Z,2.92
2023-04-25T21:17:21.616Z,3.40
2023-04-25T21:20:10.234Z,3.03
2023-04-25T21:22:55.339Z,2.97
2023-04-25T21:25:42.137Z,2.83
2023-04-25T21:28:27.302Z,3.30
2023-04-25T21:31:12.731Z,4.10
2023-04-25T21:33:57.956Z,3.25
2023-04-25T21:36:44.216Z,3.42
2023-04-25T21:39:29.326Z,3.38
2023-04-25T21:42:14.346Z,2.65
2023-04-25T21:45:01.440Z,2.40
2023-04-25T21:47:47.677Z,2.47
2023-04-25T21:50:33.460Z,2.80
2023-04-25T21:53:18.965Z,3.40
2023-04-25T21:56:04.175Z,3.38
2023-04-25T21:58:49.968Z,3.60
2023-04-25T22:01:35.402Z,3.85
2023-04-25T22:04:21.077Z,3.70
2023-04-25T22:07:06.405Z,3.42
2023-04-25T22:09:55.356Z,2.97
2023-04-25T22:12:41.307Z,3.50
2023-04-25T22:15:27.041Z,3.10
2023-04-25T22:18:13.297Z,3.40
2023-04-25T22:20:58.377Z,3.30
2023-04-25T22:23:43.311Z,3.72
2023-04-25T22:26:30.159Z,3.03
2023-04-25T22:29:15.552Z,3.08
2023-04-25T22:32:00.496Z,3.05
2023-04-25T22:34:46.672Z,2.80
2023-04-25T22:37:32.051Z,2.50
2023-04-25T22:40:18.178Z,2.90
2023-04-25T22:43:03.185Z,3.25
2023-04-25T22:45:48.733Z,2.75
2023-04-25T22:48:33.773Z,2.85
2023-04-25T22:51:18.965Z,3.00
2023-04-25T22:54:05.373Z,2.88
2023-04-25T22:56:51.031Z,2.65
2023-04-25T22:59:38.729Z,3.03
2023-04-25T23:02:24.947Z,2.65
2023-04-25T23:05:10.064Z,2.60
2023-04-25T23:07:55.056Z,3.03
2023-04-25T23:10:40.430Z,3.13
2023-04-25T23:13:25.771Z,3.20
2023-04-25T23:16:11.215Z,3.05
2023-04-25T23:18:56.649Z,3.17
2023-04-25T23:21:44.323Z,3.08
2023-04-25T23:24:29.476Z,3.50
2023-04-25T23:27:14.254Z,5.38
2023-04-25T23:29:59.181Z,3.58
2023-04-25T23:32:44.605Z,3.55
2023-04-25T23:35:29.903Z,3.00
2023-04-25T23:38:16.438Z,3.60
2023-04-25T23:41:01.609Z,2.88
2023-04-25T23:43:46.617Z,3.33
2023-04-25T23:46:31.881Z,3.75
2023-04-25T23:49:17.023Z,3.65
2023-04-25T23:52:03.766Z,3.63
2023-04-25T23:54:48.765Z,4.03
2023-04-25T23:57:34.094Z,3.53
